createdAt,value
2018-07-19T00:00:05.166Z,62.08
2018-07-19T00:01:05.160Z,63.36
2018-07-19T00:02:05.144Z,62.99
2018-07-19T00:03:05.212Z,63.29
2018-07-19T00:04:05.125Z,62.08
2018-07-19T00:05:05.117Z,62.08
2018-07-19T00:06:05.102Z,63.59
2018-07-19T00:07:05.091Z,64.20
2018-07-19T00:08:05.168Z,64.10
2018-07-19T00:09:05.069Z,64.03
2018-07-19T00:10:05.058Z,63.82
2018-07-19T00:11:05.047Z,63.02
2018-07-19T00:12:05.039Z,63.62
2018-07-19T00:13:05.091Z,63.82
2018-07-19T00:14:05.019Z,63.42
2018-07-19T00:15:05.008Z,63.53
2018-07-19T00:16:04.997Z,63.93
2018-07-19T00:17:04.986Z,63.82
2018-07-19T00:18:05.042Z,64.03
2018-07-19T00:19:05.718Z,64.13
2018-07-19T00:20:04.953Z,64.03
2018-07-19T00:21:04.947Z,64.03
2018-07-19T00:22:04.933Z,64.13
2018-07-19T00:23:04.988Z,64.03
2018-07-19T00:24:04.914Z,64.13
2018-07-19T00:25:04.903Z,64.06
2018-07-19T00:26:04.887Z,64.06
2018-07-19T00:27:04.878Z,64.16
2018-07-19T00:28:04.934Z,63.76
2018-07-19T00:29:04.853Z,65.36
2018-07-19T00:30:04.842Z,64.46
2018-07-19T00:31:04.834Z,64.66
2018-07-19T00:32:04.827Z,64.96
2018-07-19T00:33:04.883Z,65.06
2018-07-19T00:34:04.811Z,64.29
2018-07-19T00:35:04.794Z,64.06
2018-07-19T00:36:04.781Z,65.26
2018-07-19T00:37:04.767Z,65.36
2018-07-19T00:38:04.823Z,65.39
2018-07-19T00:39:04.750Z,65.36
2018-07-19T00:40:06.684Z,65.97
2018-07-19T00:41:04.723Z,65.59
2018-07-19T00:42:04.715Z,66.10
2018-07-19T00:43:04.770Z,65.70
2018-07-19T00:44:04.693Z,65.50
2018-07-19T00:45:04.682Z,65.39
2018-07-19T00:46:04.673Z,65.80
2018-07-19T00:47:04.662Z,66.20
2018-07-19T00:48:04.718Z,65.70
2018-07-19T00:49:04.641Z,64.09
2018-07-19T00:50:04.629Z,65.90
2018-07-19T00:51:04.620Z,65.93
2018-07-19T00:52:04.609Z,64.89
2018-07-19T00:53:04.662Z,64.82
2018-07-19T00:54:04.597Z,64.92
2018-07-19T00:55:04.579Z,65.53
2018-07-19T00:56:13.192Z,65.30
2018-07-19T00:57:12.677Z,64.79
2018-07-19T00:58:15.864Z,65.12
2018-07-19T00:59:12.068Z,64.12
2018-07-19T01:00:12.052Z,63.92
2018-07-19T01:01:04.510Z,63.71
2018-07-19T01:02:04.498Z,62.64
2018-07-19T01:03:04.570Z,63.21
2018-07-19T01:04:04.479Z,63.95
2018-07-19T01:05:04.469Z,63.34
2018-07-19T01:06:04.524Z,62.34
2018-07-19T01:07:04.446Z,63.34
2018-07-19T01:08:04.438Z,63.82
2018-07-19T01:09:04.494Z,63.54
2018-07-19T01:10:04.418Z,62.13
2018-07-19T01:11:04.406Z,63.75
2018-07-19T01:12:04.399Z,63.75
2018-07-19T01:13:04.388Z,63.85
2018-07-19T01:14:04.440Z,63.75
2018-07-19T01:15:04.363Z,63.65
2018-07-19T01:16:04.352Z,64.05
2018-07-19T01:17:04.344Z,64.55
2018-07-19T01:18:04.338Z,63.75
2018-07-19T01:19:04.390Z,64.25
2018-07-19T01:20:04.310Z,62.54
2018-07-19T01:21:05.853Z,63.75
2018-07-19T01:22:04.291Z,65.46
2018-07-19T01:23:04.283Z,64.65
2018-07-19T01:24:04.338Z,64.05
2018-07-19T01:25:04.262Z,64.15
2018-07-19T01:26:04.249Z,63.57
2018-07-19T01:27:04.238Z,64.28
2018-07-19T01:28:04.227Z,65.39
2018-07-19T01:29:04.285Z,65.76
2018-07-19T01:30:04.209Z,65.49
2018-07-19T01:31:04.199Z,66.19
2018-07-19T01:32:04.188Z,65.79
2018-07-19T01:33:04.175Z,65.89
2018-07-19T01:34:04.232Z,66.53
2018-07-19T01:35:04.160Z,66.80
2018-07-19T01:36:04.148Z,66.80
2018-07-19T01:37:04.132Z,66.90
2018-07-19T01:38:04.122Z,66.73
2018-07-19T01:39:04.182Z,66.83
2018-07-19T01:40:04.102Z,66.50
2018-07-19T01:41:04.094Z,67.80
2018-07-19T01:42:04.848Z,67.33
2018-07-19T01:43:04.071Z,67.74
2018-07-19T01:44:04.121Z,67.84
2018-07-19T01:45:04.049Z,68.44
2018-07-19T01:46:04.038Z,68.81
2018-07-19T01:47:04.030Z,68.95
2018-07-19T01:48:04.019Z,69.05
2018-07-19T01:49:04.074Z,69.25
2018-07-19T01:50:03.998Z,67.71
2018-07-19T01:51:03.988Z,69.85
2018-07-19T01:52:03.975Z,70.06
2018-07-19T01:53:03.964Z,68.95
2018-07-19T01:54:04.019Z,69.45
2018-07-19T01:55:03.944Z,69.15
2018-07-19T01:56:03.933Z,69.35
2018-07-19T01:57:03.922Z,70.76
2018-07-19T01:58:03.914Z,69.35
2018-07-19T01:59:03.969Z,69.95
2018-07-19T02:00:03.934Z,70.36
2018-07-19T02:01:03.883Z,69.65
2018-07-19T02:02:03.867Z,70.36
2018-07-19T02:03:04.845Z,69.05
2018-07-19T02:04:03.913Z,68.85
2018-07-19T02:05:03.837Z,68.34
2018-07-19T02:06:03.829Z,69.85
2018-07-19T02:07:03.817Z,70.76
2018-07-19T02:08:03.806Z,69.45
2018-07-19T02:09:03.877Z,70.36
2018-07-19T02:10:03.787Z,70.46
2018-07-19T02:11:03.773Z,70.56
2018-07-19T02:12:03.768Z,69.45
2018-07-19T02:13:03.756Z,70.76
2018-07-19T02:14:03.811Z,70.09
2018-07-19T02:15:03.731Z,70.09
2018-07-19T02:16:03.723Z,70.26
2018-07-19T02:17:03.712Z,69.79
2018-07-19T02:18:03.698Z,70.49
2018-07-19T02:19:03.767Z,70.46
2018-07-19T02:20:03.684Z,70.19
2018-07-19T02:21:03.673Z,70.29
2018-07-19T02:22:03.665Z,70.49
2018-07-19T02:23:03.715Z,69.99
2018-07-19T02:24:04.345Z,69.99
2018-07-19T02:25:03.693Z,70.89
2018-07-19T02:26:03.618Z,69.82
2018-07-19T02:27:03.610Z,71.40
2018-07-19T02:28:03.601Z,71.30
2018-07-19T02:29:03.585Z,71.23
2018-07-19T02:30:03.632Z,69.99
2018-07-19T02:31:03.563Z,70.59
2018-07-19T02:32:03.554Z,70.79
2018-07-19T02:33:03.543Z,68.98
2018-07-19T02:34:03.532Z,69.89
2018-07-19T02:35:03.587Z,69.79
2018-07-19T02:36:03.510Z,70.39
2018-07-19T02:37:03.501Z,71.60
2018-07-19T02:38:03.491Z,70.53
2018-07-19T02:39:03.480Z,71.50
2018-07-19T02:40:03.540Z,69.92
2018-07-19T02:41:03.454Z,71.13
2018-07-19T02:42:03.443Z,71.13
2018-07-19T02:43:03.438Z,71.70
2018-07-19T02:44:03.429Z,71.03
2018-07-19T02:45:03.922Z,72.11
2018-07-19T02:46:03.408Z,71.53
2018-07-19T02:47:03.401Z,71.73
2018-07-19T02:48:03.383Z,67.70
2018-07-19T02:49:03.371Z,73.15
2018-07-19T02:50:03.426Z,69.04
2018-07-19T02:51:03.350Z,72.24
2018-07-19T02:52:03.351Z,71.53
2018-07-19T02:53:03.330Z,71.03
2018-07-19T02:54:03.319Z,70.12
2018-07-19T02:55:03.379Z,72.64
2018-07-19T02:56:03.300Z,71.44
2018-07-19T02:57:03.293Z,73.45
2018-07-19T02:58:03.274Z,71.37
2018-07-19T02:59:03.270Z,69.95
2018-07-19T03:00:03.320Z,71.47
2018-07-19T03:01:03.244Z,70.46
2018-07-19T03:02:03.288Z,68.04
2018-07-19T03:03:03.226Z,70.46
2018-07-19T03:04:03.214Z,69.85
2018-07-19T03:05:03.266Z,68.51
2018-07-19T03:06:03.843Z,71.47
2018-07-19T03:07:03.185Z,69.35
2018-07-19T03:08:03.173Z,72.44
2018-07-19T03:09:03.160Z,71.67
2018-07-19T03:10:03.213Z,69.55
2018-07-19T03:11:03.134Z,71.87
2018-07-19T03:12:03.126Z,73.58
2018-07-19T03:13:03.118Z,72.07
2018-07-19T03:14:03.103Z,72.68
2018-07-19T03:15:03.153Z,71.50
2018-07-19T03:16:03.084Z,70.36
2018-07-19T03:17:03.073Z,70.46
2018-07-19T03:18:03.062Z,68.33
2018-07-19T03:19:03.050Z,70.06
2018-07-19T03:20:03.109Z,71.87
2018-07-19T03:21:03.028Z,73.08
2018-07-19T03:22:03.838Z,73.18
2018-07-19T03:23:03.010Z,72.31
2018-07-19T03:24:02.998Z,74.19
2018-07-19T03:25:03.053Z,73.52
2018-07-19T03:26:02.984Z,73.42
2018-07-19T03:27:03.840Z,74.93
2018-07-19T03:28:02.954Z,73.42
2018-07-19T03:29:02.945Z,73.42
2018-07-19T03:30:03.008Z,73.93
2018-07-19T03:31:02.969Z,75.24
2018-07-19T03:32:02.931Z,75.34
2018-07-19T03:33:02.903Z,75.24
2018-07-19T03:34:02.894Z,75.84
2018-07-19T03:35:02.948Z,75.13
2018-07-19T03:36:02.870Z,75.13
2018-07-19T03:37:02.860Z,73.96
2018-07-19T03:38:02.848Z,73.55
2018-07-19T03:39:02.840Z,73.66
2018-07-19T03:40:02.948Z,73.75
2018-07-19T03:41:02.815Z,74.87
2018-07-19T03:42:02.810Z,74.73
2018-07-19T03:43:02.799Z,75.48
2018-07-19T03:44:02.785Z,75.27
2018-07-19T03:45:02.840Z,74.16
2018-07-19T03:46:02.766Z,74.66
2018-07-19T03:47:02.752Z,75.27
2018-07-19T03:48:03.338Z,73.35
2018-07-19T03:49:02.733Z,74.84
2018-07-19T03:50:02.721Z,73.55
2018-07-19T03:51:02.781Z,74.16
2018-07-19T03:52:02.699Z,73.66
2018-07-19T03:53:02.691Z,74.26
2018-07-19T03:54:02.677Z,72.81
2018-07-19T03:55:02.669Z,72.04
2018-07-19T03:56:02.721Z,71.33
2018-07-19T03:57:02.647Z,72.55
2018-07-19T03:58:02.649Z,73.05
2018-07-19T03:59:02.625Z,73.05
2018-07-19T04:00:02.616Z,71.73
2018-07-19T04:01:02.669Z,72.44
2018-07-19T04:02:02.616Z,73.55
2018-07-19T04:03:02.580Z,73.05
2018-07-19T04:04:02.575Z,73.46
2018-07-19T04:05:02.560Z,73.66
2018-07-19T04:06:02.619Z,73.25
2018-07-19T04:07:02.541Z,71.64
2018-07-19T04:08:02.533Z,71.84
2018-07-19T04:09:03.336Z,70.32
2018-07-19T04:10:02.511Z,70.73
2018-07-19T04:11:02.566Z,70.62
2018-07-19T04:12:02.488Z,71.44
2018-07-19T04:13:02.483Z,71.03
2018-07-19T04:14:02.467Z,72.24
2018-07-19T04:15:02.456Z,72.44
2018-07-19T04:16:02.509Z,72.44
2018-07-19T04:17:02.445Z,73.05
2018-07-19T04:18:02.425Z,71.03
2018-07-19T04:19:02.423Z,70.83
2018-07-19T04:20:02.400Z,71.13
2018-07-19T04:21:02.458Z,72.64
2018-07-19T04:22:02.383Z,70.73
2018-07-19T04:23:02.369Z,72.04
2018-07-19T04:24:02.359Z,74.16
2018-07-19T04:25:02.401Z,74.57
2018-07-19T04:26:02.402Z,72.44
2018-07-19T04:27:02.333Z,73.35
2018-07-19T04:28:02.316Z,73.75
2018-07-19T04:29:02.304Z,71.73
2018-07-19T04:30:02.835Z,74.37
2018-07-19T04:31:02.355Z,74.46
2018-07-19T04:32:02.275Z,73.25
2018-07-19T04:33:02.266Z,70.83
2018-07-19T04:34:02.269Z,71.64
2018-07-19T04:35:02.245Z,74.66
2018-07-19T04:36:02.305Z,73.05
2018-07-19T04:37:02.224Z,75.57
2018-07-19T04:38:02.211Z,75.17
2018-07-19T04:39:02.201Z,72.64
2018-07-19T04:40:02.195Z,74.37
2018-07-19T04:41:02.240Z,73.35
2018-07-19T04:42:02.173Z,74.26
2018-07-19T04:43:02.164Z,74.37
2018-07-19T04:44:02.145Z,73.86
2018-07-19T04:45:02.137Z,72.95
2018-07-19T04:46:02.192Z,75.07
2018-07-19T04:47:02.112Z,74.46
2018-07-19T04:48:02.117Z,74.66
2018-07-19T04:49:02.101Z,73.25
2018-07-19T04:50:02.094Z,71.73
2018-07-19T04:51:02.410Z,71.23
2018-07-19T04:52:02.062Z,72.95
2018-07-19T04:53:02.051Z,72.04
2018-07-19T04:54:09.569Z,72.14
2018-07-19T04:55:02.029Z,72.24
2018-07-19T04:56:02.097Z,72.85
2018-07-19T04:57:02.014Z,72.44
2018-07-19T04:58:01.999Z,72.91
2018-07-19T04:59:01.985Z,73.72
2018-07-19T05:00:01.997Z,73.32
2018-07-19T05:01:02.037Z,73.62
2018-07-19T05:02:02.013Z,73.22
2018-07-19T05:03:01.952Z,73.22
2018-07-19T05:04:01.933Z,73.42
2018-07-19T05:05:01.924Z,73.72
2018-07-19T05:06:01.976Z,73.42
2018-07-19T05:07:01.903Z,71.60
2018-07-19T05:08:01.894Z,73.11
2018-07-19T05:09:01.898Z,73.52
2018-07-19T05:10:01.868Z,72.00
2018-07-19T05:11:01.942Z,73.62
2018-07-19T05:12:01.849Z,72.07
2018-07-19T05:13:01.835Z,70.76
2018-07-19T05:14:01.834Z,71.60
2018-07-19T05:15:02.380Z,71.87
2018-07-19T05:16:01.897Z,71.77
2018-07-19T05:17:01.799Z,70.15
2018-07-19T05:18:01.788Z,71.57
2018-07-19T05:19:01.776Z,71.06
2018-07-19T05:20:01.760Z,70.76
2018-07-19T05:21:01.833Z,72.07
2018-07-19T05:22:01.747Z,71.57
2018-07-19T05:23:02.374Z,72.34
2018-07-19T05:24:01.725Z,70.53
2018-07-19T05:25:01.713Z,70.83
2018-07-19T05:26:01.771Z,69.92
2018-07-19T05:27:01.694Z,70.83
2018-07-19T05:28:01.698Z,71.30
2018-07-19T05:29:01.704Z,71.13
2018-07-19T05:30:01.666Z,70.12
2018-07-19T05:31:01.661Z,70.49
2018-07-19T05:32:01.711Z,69.99
2018-07-19T05:33:01.630Z,69.68
2018-07-19T05:34:01.618Z,69.08
2018-07-19T05:35:01.609Z,69.15
2018-07-19T05:36:02.376Z,69.25
2018-07-19T05:37:01.656Z,68.34
2018-07-19T05:38:01.579Z,67.91
2018-07-19T05:39:01.567Z,67.74
2018-07-19T05:40:01.554Z,67.50
2018-07-19T05:41:01.574Z,67.54
2018-07-19T05:42:01.656Z,67.91
2018-07-19T05:43:01.526Z,66.90
2018-07-19T05:44:01.512Z,68.11
2018-07-19T05:45:01.504Z,67.60
2018-07-19T05:46:01.511Z,67.68
2018-07-19T05:47:01.546Z,66.50
2018-07-19T05:48:01.473Z,67.17
2018-07-19T05:49:01.459Z,67.17
2018-07-19T05:50:01.452Z,66.97
2018-07-19T05:51:01.440Z,66.53
2018-07-19T05:52:01.500Z,66.23
2018-07-19T05:53:01.418Z,67.37
2018-07-19T05:54:01.409Z,66.97
2018-07-19T05:55:01.396Z,66.74
2018-07-19T05:56:01.382Z,66.13
2018-07-19T05:57:01.943Z,66.74
2018-07-19T05:58:01.368Z,66.83
2018-07-19T05:59:01.349Z,67.00
2018-07-19T06:00:01.353Z,65.70
2018-07-19T06:01:01.332Z,65.77
2018-07-19T06:02:01.406Z,65.56
2018-07-19T06:03:01.317Z,65.67
2018-07-19T06:04:01.303Z,64.73
2018-07-19T06:05:01.290Z,64.23
2018-07-19T06:06:01.283Z,63.53
2018-07-19T06:07:01.336Z,63.32
2018-07-19T06:08:01.254Z,63.70
2018-07-19T06:09:01.246Z,63.39
2018-07-19T06:10:01.235Z,62.66
2018-07-19T06:11:01.227Z,62.36
2018-07-19T06:12:01.279Z,62.33
2018-07-19T06:13:01.211Z,62.03
2018-07-19T06:14:01.191Z,62.13
2018-07-19T06:15:01.185Z,62.30
2018-07-19T06:16:01.194Z,61.90
2018-07-19T06:17:01.227Z,61.80
2018-07-19T06:18:01.868Z,61.60
2018-07-19T06:19:01.141Z,61.57
2018-07-19T06:20:01.124Z,61.70
2018-07-19T06:21:01.119Z,62.30
2018-07-19T06:22:01.177Z,62.07
2018-07-19T06:23:01.101Z,61.30
2018-07-19T06:24:01.091Z,61.17
2018-07-19T06:25:01.077Z,61.07
2018-07-19T06:26:01.068Z,60.77
2018-07-19T06:27:01.121Z,60.74
2018-07-19T06:28:01.049Z,60.74
2018-07-19T06:29:01.041Z,60.53
2018-07-19T06:30:01.029Z,60.41
2018-07-19T06:31:01.013Z,59.70
2018-07-19T06:32:01.071Z,59.18
2018-07-19T06:33:00.993Z,59.48
2018-07-19T06:34:00.982Z,59.05
2018-07-19T06:35:00.970Z,58.25
2018-07-19T06:36:00.961Z,58.25
2018-07-19T06:37:01.016Z,57.72
2018-07-19T06:38:00.939Z,57.55
2018-07-19T06:39:01.860Z,57.52
2018-07-19T06:40:00.930Z,57.39
2018-07-19T06:41:00.908Z,57.29
2018-07-19T06:42:00.958Z,57.59
2018-07-19T06:43:00.886Z,56.46
2018-07-19T06:44:00.891Z,57.17
2018-07-19T06:45:00.873Z,56.27
2018-07-19T06:46:00.858Z,57.04
2018-07-19T06:47:00.905Z,56.46
2018-07-19T06:48:00.833Z,57.04
2018-07-19T06:49:00.822Z,56.44
2018-07-19T06:50:00.814Z,56.14
2018-07-19T06:51:00.827Z,56.11
2018-07-19T06:52:00.861Z,55.62
2018-07-19T06:53:00.788Z,54.89
2018-07-19T06:54:00.773Z,55.29
2018-07-19T06:55:00.760Z,54.29
2018-07-19T06:56:00.757Z,53.36
2018-07-19T06:57:00.806Z,53.47
2018-07-19T06:58:00.733Z,52.87
2018-07-19T06:59:00.741Z,53.84
2018-07-19T07:00:01.364Z,52.84
2018-07-19T07:01:00.700Z,52.72
2018-07-19T07:02:00.758Z,52.22
2018-07-19T07:03:00.683Z,52.29
2018-07-19T07:04:01.362Z,52.51
2018-07-19T07:05:00.656Z,52.29
2018-07-19T07:06:00.650Z,51.89
2018-07-19T07:07:00.704Z,52.17
2018-07-19T07:08:00.628Z,50.98
2018-07-19T07:09:00.640Z,50.15
2018-07-19T07:10:00.608Z,49.53
2018-07-19T07:11:00.602Z,49.33
2018-07-19T07:12:00.662Z,49.43
2018-07-19T07:13:01.365Z,49.43
2018-07-19T07:14:00.594Z,50.45
2018-07-19T07:15:00.608Z,49.85
2018-07-19T07:16:00.553Z,50.65
2018-07-19T07:17:00.539Z,50.45
2018-07-19T07:18:00.584Z,50.63
2018-07-19T07:19:00.517Z,49.31
2018-07-19T07:20:00.508Z,48.61
2018-07-19T07:21:01.361Z,49.21
2018-07-19T07:22:00.484Z,48.59
2018-07-19T07:23:00.531Z,48.47
2018-07-19T07:24:07.985Z,46.48
2018-07-19T07:25:00.461Z,48.37
2018-07-19T07:26:00.444Z,48.27
2018-07-19T07:27:00.442Z,47.16
2018-07-19T07:28:00.489Z,47.13
2018-07-19T07:29:00.416Z,46.73
2018-07-19T07:30:00.419Z,46.31
2018-07-19T07:31:00.395Z,44.93
2018-07-19T07:32:00.384Z,45.52
2018-07-19T07:33:00.444Z,45.62
2018-07-19T07:34:00.387Z,45.50
2018-07-19T07:35:08.509Z,45.60
2018-07-19T07:36:00.356Z,45.48
2018-07-19T07:37:00.334Z,44.68
2018-07-19T07:38:08.490Z,44.46
2018-07-19T07:39:00.362Z,44.07
2018-07-19T07:40:08.447Z,43.87
2018-07-19T07:41:08.441Z,44.45
2018-07-19T07:42:00.292Z,43.93
2018-07-19T07:44:00.284Z,43.51
2018-07-19T07:45:01.035Z,42.40
2018-07-19T07:46:00.253Z,42.21
2018-07-19T07:47:00.234Z,41.61
2018-07-19T07:48:08.473Z,41.99
2018-07-19T07:49:08.297Z,41.59
2018-07-19T07:50:00.214Z,41.49
2018-07-19T07:51:00.204Z,41.52
2018-07-19T07:52:00.190Z,41.73
2018-07-19T07:53:00.248Z,41.93
2018-07-19T07:54:00.177Z,42.19
2018-07-19T07:55:00.165Z,42.80
2018-07-19T07:56:00.150Z,42.82
2018-07-19T07:57:00.158Z,43.62
2018-07-19T07:58:00.198Z,44.51
2018-07-19T07:59:00.121Z,43.79
2018-07-19T08:00:00.112Z,43.20
2018-07-19T08:01:00.109Z,43.87
2018-07-19T08:02:00.090Z,43.87
2018-07-19T08:03:00.145Z,43.38
2018-07-19T08:04:00.071Z,42.27
2018-07-19T08:05:00.063Z,41.85
2018-07-19T08:06:00.075Z,42.54
2018-07-19T08:07:00.051Z,41.65
2018-07-19T08:08:00.099Z,41.46
2018-07-19T08:09:00.090Z,42.27
2018-07-19T08:10:00.598Z,42.07
2018-07-19T08:10:59.998Z,41.75
2018-07-19T08:11:59.997Z,41.77
2018-07-19T08:13:00.054Z,41.75
2018-07-19T08:13:59.976Z,42.05
2018-07-19T08:14:59.967Z,42.25
2018-07-19T08:15:59.958Z,42.05
2018-07-19T08:16:59.940Z,42.35
2018-07-19T08:18:00.000Z,41.25
2018-07-19T08:18:59.934Z,40.94
2018-07-19T08:19:59.915Z,41.53
2018-07-19T08:20:59.904Z,41.63
2018-07-19T08:21:59.892Z,41.53
2018-07-19T08:22:59.951Z,40.25
2018-07-19T08:23:59.874Z,40.15
2018-07-19T08:24:59.862Z,39.73
2018-07-19T08:25:59.851Z,41.91
2018-07-19T08:26:59.854Z,40.23
2018-07-19T08:27:59.898Z,41.30
2018-07-19T08:28:59.845Z,41.30
2018-07-19T08:29:59.814Z,40.41
2018-07-19T08:31:07.961Z,39.91
2018-07-19T08:32:07.953Z,39.72
2018-07-19T08:33:07.944Z,40.09
2018-07-19T08:34:07.869Z,38.51
2018-07-19T08:35:07.921Z,39.70
2018-07-19T08:35:59.823Z,39.58
2018-07-19T08:36:59.746Z,39.58
2018-07-19T08:37:59.798Z,38.10
2018-07-19T08:39:07.822Z,38.69
2018-07-19T08:40:07.795Z,38.41
2018-07-19T08:41:07.861Z,39.28
2018-07-19T08:42:08.336Z,38.49
2018-07-19T08:43:07.282Z,37.37
2018-07-19T08:44:07.215Z,36.25
2018-07-19T08:44:59.665Z,36.55
2018-07-19T08:45:59.651Z,35.86
2018-07-19T08:46:59.643Z,36.94
2018-07-19T08:47:59.696Z,36.35
2018-07-19T08:48:59.624Z,36.22
2018-07-19T08:49:59.636Z,35.20
2018-07-19T08:50:59.607Z,34.99
2018-07-19T08:51:59.599Z,34.49
2018-07-19T08:52:59.671Z,35.80
2018-07-19T08:53:59.574Z,35.88
2018-07-19T08:54:59.565Z,35.31
2018-07-19T08:56:30.547Z,35.71
2018-07-19T08:57:30.453Z,35.71
2018-07-19T08:58:30.506Z,36.11
2018-07-19T08:59:30.435Z,36.80
2018-07-19T09:00:30.420Z,37.40
2018-07-19T09:01:30.409Z,36.41
2018-07-19T09:02:30.402Z,36.22
2018-07-19T09:03:30.461Z,35.99
2018-07-19T09:04:30.405Z,34.64
2018-07-19T09:05:30.373Z,34.23
2018-07-19T09:06:30.362Z,33.12
2018-07-19T09:07:30.354Z,32.64
2018-07-19T09:08:30.409Z,33.43
2018-07-19T09:09:30.336Z,32.50
2018-07-19T09:10:30.325Z,31.49
2018-07-19T09:11:30.319Z,31.16
2018-07-19T09:12:30.306Z,30.57
2018-07-19T09:13:30.357Z,30.94
2018-07-19T09:14:30.289Z,30.34
2018-07-19T09:15:30.286Z,28.96
2018-07-19T09:16:30.270Z,30.44
2018-07-19T09:17:31.144Z,29.83
2018-07-19T09:18:30.314Z,29.74
2018-07-19T09:19:30.272Z,29.43
2018-07-19T09:20:30.234Z,29.04
2018-07-19T09:21:30.225Z,29.22
2018-07-19T09:22:30.222Z,28.64
2018-07-19T09:23:30.275Z,29.32
2018-07-19T09:24:30.205Z,29.15
2018-07-19T09:25:30.199Z,29.56
2018-07-19T09:26:30.228Z,29.64
2018-07-19T09:27:30.177Z,29.42
2018-07-19T09:28:30.236Z,29.02
2018-07-19T09:29:30.163Z,29.02
2018-07-19T09:30:30.166Z,28.74
2018-07-19T09:31:30.146Z,28.78
2018-07-19T09:32:30.138Z,30.19
2018-07-19T09:33:30.196Z,30.80
2018-07-19T09:34:30.134Z,31.60
2018-07-19T09:35:30.110Z,30.88
2018-07-19T09:36:30.102Z,30.09
2018-07-19T09:37:30.096Z,29.77
2018-07-19T09:38:30.256Z,29.36
2018-07-19T09:39:30.077Z,28.65
2018-07-19T09:40:30.071Z,27.86
2018-07-19T09:41:30.057Z,28.53
2018-07-19T09:42:30.052Z,27.44
2018-07-19T09:43:30.128Z,27.23
2018-07-19T09:44:30.060Z,26.64
2018-07-19T09:45:30.027Z,26.83
2018-07-19T09:46:30.018Z,26.83
2018-07-19T09:47:30.015Z,27.21
2018-07-19T09:48:30.005Z,27.10
2018-07-19T09:49:30.062Z,26.42
2018-07-19T09:50:29.987Z,26.89
2018-07-19T09:51:29.984Z,26.89
2018-07-19T09:52:29.970Z,26.10
2018-07-19T09:53:29.962Z,26.18
2018-07-19T09:54:30.029Z,26.09
2018-07-19T09:55:29.945Z,26.37
2018-07-19T09:56:29.942Z,24.82
2018-07-19T09:57:29.936Z,25.20
2018-07-19T09:58:29.928Z,24.71
2018-07-19T09:59:30.266Z,25.01
2018-07-19T10:00:29.911Z,24.63
2018-07-19T10:01:29.902Z,24.63
2018-07-19T10:02:29.896Z,24.93
2018-07-19T10:03:29.891Z,24.83
2018-07-19T10:04:29.944Z,24.83
2018-07-19T10:05:29.874Z,25.02
2018-07-19T10:06:29.863Z,24.91
2018-07-19T10:07:29.858Z,24.71
2018-07-19T10:08:29.852Z,22.96
2018-07-19T10:09:29.910Z,25.23
2018-07-19T10:10:29.837Z,24.95
2018-07-19T10:11:29.832Z,25.03
2018-07-19T10:12:29.823Z,25.36
2018-07-19T10:13:29.825Z,26.62
2018-07-19T10:14:29.874Z,26.71
2018-07-19T10:15:29.851Z,24.66
2018-07-19T10:16:29.795Z,25.21
2018-07-19T10:17:29.795Z,24.13
2018-07-19T10:18:29.778Z,22.77
2018-07-19T10:19:29.836Z,22.56
2018-07-19T10:20:30.645Z,21.98
2018-07-19T10:21:29.759Z,23.33
2018-07-19T10:22:29.754Z,23.02
2018-07-19T10:23:29.784Z,22.14
2018-07-19T10:24:29.802Z,21.84
2018-07-19T10:25:29.730Z,22.12
2018-07-19T10:26:29.758Z,21.92
2018-07-19T10:27:29.713Z,21.71
2018-07-19T10:28:29.751Z,21.54
2018-07-19T10:29:29.768Z,21.94
2018-07-19T10:30:29.690Z,21.15
2018-07-19T10:31:29.682Z,20.07
2018-07-19T10:32:29.744Z,20.54
2018-07-19T10:33:29.671Z,20.25
2018-07-19T10:34:29.787Z,21.69
2018-07-19T10:35:29.659Z,20.43
2018-07-19T10:36:29.653Z,20.06
2018-07-19T10:37:29.655Z,18.98
2018-07-19T10:38:29.681Z,20.23
2018-07-19T10:39:29.698Z,19.96
2018-07-19T10:40:29.623Z,20.17
2018-07-19T10:41:30.126Z,18.70
2018-07-19T10:42:29.610Z,18.96
2018-07-19T10:43:29.600Z,20.11
2018-07-19T10:44:29.699Z,17.88
2018-07-19T10:45:29.588Z,18.84
2018-07-19T10:46:29.583Z,18.37
2018-07-19T10:47:29.573Z,18.95
2018-07-19T10:48:29.566Z,19.04
2018-07-19T10:49:29.622Z,18.27
2018-07-19T10:50:29.560Z,17.88
2018-07-19T10:51:29.551Z,18.74
2018-07-19T10:52:29.586Z,19.23
2018-07-19T10:53:29.532Z,18.36
2018-07-19T10:54:29.593Z,18.16
2018-07-19T10:55:29.522Z,17.67
2018-07-19T10:56:29.519Z,18.43
2018-07-19T10:57:29.590Z,18.32
2018-07-19T10:58:29.498Z,17.94
2018-07-19T10:59:29.562Z,17.65
2018-07-19T11:00:29.487Z,18.42
2018-07-19T11:01:29.484Z,17.36
2018-07-19T11:02:30.119Z,17.25
2018-07-19T11:03:29.470Z,18.51
2018-07-19T11:04:29.527Z,18.55
2018-07-19T11:05:29.455Z,18.10
2018-07-19T11:06:29.452Z,17.79
2018-07-19T11:07:29.439Z,18.07
2018-07-19T11:08:29.436Z,17.76
2018-07-19T11:09:29.510Z,17.58
2018-07-19T11:10:29.418Z,18.18
2018-07-19T11:11:29.413Z,17.87
2018-07-19T11:12:29.405Z,18.18
2018-07-19T11:13:29.399Z,18.20
2018-07-19T11:14:29.456Z,18.08
2018-07-19T11:15:29.384Z,18.07
2018-07-19T11:16:29.405Z,16.82
2018-07-19T11:17:29.368Z,17.58
2018-07-19T11:18:29.362Z,16.71
2018-07-19T11:19:29.426Z,16.89
2018-07-19T11:20:29.351Z,16.78
2018-07-19T11:21:29.342Z,16.40
2018-07-19T11:22:29.344Z,17.07
2018-07-19T11:23:30.110Z,17.25
2018-07-19T11:24:29.389Z,17.15
2018-07-19T11:25:29.316Z,16.77
2018-07-19T11:26:29.311Z,16.86
2018-07-19T11:27:29.305Z,16.76
2018-07-19T11:28:29.335Z,15.91
2018-07-19T11:29:29.365Z,16.96
2018-07-19T11:30:29.306Z,16.47
2018-07-19T11:31:29.277Z,15.99
2018-07-19T11:32:29.335Z,16.27
2018-07-19T11:33:29.290Z,16.27
2018-07-19T11:34:29.260Z,15.89
2018-07-19T11:35:29.540Z,16.55
2018-07-19T11:36:29.670Z,16.94
2018-07-19T11:37:29.556Z,16.35
2018-07-19T11:38:29.587Z,16.06
2018-07-19T11:39:29.257Z,16.08
2018-07-19T11:40:29.771Z,16.58
2018-07-19T11:41:29.254Z,16.96
2018-07-19T11:42:29.579Z,16.29
2018-07-19T11:43:29.399Z,15.71
2018-07-19T11:44:30.291Z,16.08
2018-07-19T11:45:29.619Z,17.03
2018-07-19T11:46:29.393Z,16.16
2018-07-19T11:47:29.364Z,15.88
2018-07-19T11:48:29.356Z,15.69
2018-07-19T11:49:29.165Z,15.59
2018-07-19T11:50:29.232Z,15.81
2018-07-19T11:51:29.154Z,16.11
2018-07-19T11:52:29.151Z,16.41
2018-07-19T11:53:29.147Z,17.56
2018-07-19T11:54:29.134Z,16.80
2018-07-19T11:55:29.228Z,17.46
2018-07-19T11:56:29.131Z,16.49
2018-07-19T11:57:29.118Z,16.86
2018-07-19T11:58:29.112Z,17.15
2018-07-19T11:59:29.109Z,16.67
2018-07-19T12:00:29.171Z,16.77
2018-07-19T12:01:29.092Z,15.89
2018-07-19T12:02:29.086Z,16.96
2018-07-19T12:03:29.080Z,15.92
2018-07-19T12:04:29.075Z,17.31
2018-07-19T12:05:29.665Z,17.13
2018-07-19T12:06:29.066Z,17.58
2018-07-19T12:07:29.054Z,17.27
2018-07-19T12:08:29.049Z,17.07
2018-07-19T12:09:29.040Z,16.88
2018-07-19T12:10:29.093Z,17.16
2018-07-19T12:11:29.026Z,16.86
2018-07-19T12:12:29.020Z,16.67
2018-07-19T12:13:29.015Z,16.10
2018-07-19T12:14:29.011Z,16.58
2018-07-19T12:15:29.066Z,17.06
2018-07-19T12:16:28.997Z,16.10
2018-07-19T12:17:28.989Z,15.93
2018-07-19T12:18:28.989Z,17.37
2018-07-19T12:19:28.977Z,16.72
2018-07-19T12:20:29.035Z,17.21
2018-07-19T12:21:28.968Z,17.59
2018-07-19T12:22:42.089Z,18.34
2018-07-19T12:23:42.155Z,16.70
2018-07-19T12:24:28.946Z,16.50
2018-07-19T12:25:29.004Z,15.92
2018-07-19T12:26:28.934Z,16.60
2018-07-19T12:27:28.929Z,16.89
2018-07-19T12:28:28.920Z,16.80
2018-07-19T12:29:28.915Z,16.80
2018-07-19T12:30:28.974Z,16.62
2018-07-19T12:31:28.903Z,17.49
2018-07-19T12:32:28.900Z,16.63
2018-07-19T12:33:36.415Z,17.19
2018-07-19T12:34:28.889Z,16.41
2018-07-19T12:35:28.940Z,16.78
2018-07-19T12:36:28.872Z,16.10
2018-07-19T12:37:28.866Z,15.90
2018-07-19T12:38:28.858Z,16.76
2018-07-19T12:39:28.857Z,15.22
2018-07-19T12:40:28.910Z,15.22
2018-07-19T12:41:28.841Z,14.73
2018-07-19T12:42:28.835Z,15.59
2018-07-19T12:43:28.826Z,15.20
2018-07-19T12:44:28.823Z,14.83
2018-07-19T12:45:29.671Z,15.41
2018-07-19T12:46:28.814Z,15.50
2018-07-19T12:47:29.156Z,15.61
2018-07-19T12:48:28.800Z,15.32
2018-07-19T12:49:29.219Z,15.32
2018-07-19T12:50:29.494Z,15.31
2018-07-19T12:51:28.772Z,15.50
2018-07-19T12:52:28.770Z,15.41
2018-07-19T12:53:28.761Z,16.93